Time;durP1;ratioP1;P1;durP2;ratioP2;P2;SDS_P1;SDS_P2;PMS_P1;PMS_P2;Temp;Humidity;BMP_temperature;BMP_pressure;BME280_temperature;BME280_humidity;BME280_pressure;Samples;Min_cycle;Max_cycle;Signal;HPM_P1;HPM_P2
2022/01/07 00:05:33;;;;;;;18.70;8.90;;;;;;;-4.51;80.34;98976.40;428074;1321;109505;-38
2022/01/07 00:15:40;;;;;;;25.00;8.20;;;;;;;-4.61;80.35;98982.38;431413;1317;108743;-38
2022/01/07 00:25:48;;;;;;;21.90;7.90;;;;;;;-4.77;80.36;98992.40;431537;1317;95810;-38
2022/01/07 00:35:56;;;;;;;22.90;11.10;;;;;;;-4.95;80.27;98994.86;431900;1317;95886;-38
2022/01/07 00:46:02;;;;;;;23.80;10.40;;;;;;;-4.99;80.23;98990.04;431136;1317;112790;-39
2022/01/07 00:56:06;;;;;;;60.00;21.20;;;;;;;-5.04;80.36;98988.23;429009;1318;107704;-38
2022/01/07 01:06:13;;;;;;;42.60;16.20;;;;;;;-4.90;80.73;98997.65;429895;1318;96061;-38
2022/01/07 01:16:20;;;;;;;41.30;16.20;;;;;;;-4.99;80.39;98999.15;431866;1317;96301;-38
2022/01/07 01:26:27;;;;;;;45.00;18.50;;;;;;;-5.18;80.57;98996.23;429619;1317;112443;-38
2022/01/07 01:36:35;;;;;;;30.80;15.20;;;;;;;-5.18;81.00;98996.27;431611;1318;108909;-38
2022/01/07 01:46:42;;;;;;;37.90;15.40;;;;;;;-5.16;80.99;98993.31;430689;1317;108995;-38
2022/01/07 01:56:49;;;;;;;27.20;13.50;;;;;;;-5.24;80.92;98987.45;430357;1317;96205;-38
2022/01/07 02:17:08;;;;;;;32.00;15.50;;;;;;;-5.17;81.23;98990.69;429983;1307;112215;-38
2022/01/07 02:27:16;;;;;;;31.10;14.40;;;;;;;-5.09;81.47;98993.80;431415;1317;108982;-38
2022/01/07 02:37:24;;;;;;;21.60;9.90;;;;;;;-4.88;81.88;98996.45;433216;1316;108751;-38
2022/01/07 02:47:39;;;;;;;23.30;10.70;;;;;;;-4.70;81.56;98996.64;430063;1317;96295;-38
2022/01/07 02:57:47;;;;;;;20.70;10.60;;;;;;;-4.59;81.53;98993.91;433287;1317;96443;-38
2022/01/07 03:07:54;;;;;;;25.30;12.00;;;;;;;-4.66;81.52;98991.05;429931;1317;112753;-38
2022/01/07 03:18:01;;;;;;;24.70;12.30;;;;;;;-4.71;81.57;98988.47;429110;1317;107201;-38
2022/01/07 03:28:10;;;;;;;23.80;12.30;;;;;;;-4.65;81.54;98990.80;430651;1317;108796;-38
2022/01/07 03:38:17;;;;;;;22.70;11.10;;;;;;;-4.72;81.45;98992.03;430421;1317;96064;-39
2022/01/07 03:48:24;;;;;;;27.10;11.90;;;;;;;-4.86;81.51;98981.98;429255;1317;96398;-39
2022/01/07 03:58:31;;;;;;;29.00;15.10;;;;;;;-5.06;81.28;98995.81;428463;1322;112147;-38
2022/01/07 04:08:39;;;;;;;46.60;19.60;;;;;;;-5.30;81.12;98998.56;430598;1316;108984;-38
2022/01/07 04:18:46;;;;;;;52.00;21.20;;;;;;;-5.53;81.75;99002.41;430136;1317;108901;-38
2022/01/07 04:28:53;;;;;;;55.40;23.90;;;;;;;-5.66;81.57;99000.86;430477;1317;96422;-38
2022/01/07 04:38:59;;;;;;;37.90;17.30;;;;;;;-5.81;81.57;98994.50;431587;1317;96280;-39
2022/01/07 04:49:07;;;;;;;32.10;16.30;;;;;;;-5.77;81.82;98999.48;430770;1317;111271;-38
2022/01/07 04:59:14;;;;;;;31.80;17.10;;;;;;;-5.81;81.79;99000.69;430111;1318;108443;-38
2022/01/07 05:09:21;;;;;;;51.90;20.90;;;;;;;-5.90;81.60;98982.08;430128;1318;108960;-38
2022/01/07 05:19:28;;;;;;;43.30;19.30;;;;;;;-5.94;81.89;98980.69;431340;1317;96056;-38
2022/01/07 05:29:35;;;;;;;34.80;15.90;;;;;;;-5.87;82.00;98976.42;428582;1317;96253;-37
2022/01/07 05:39:43;;;;;;;46.30;18.40;;;;;;;-5.76;82.36;98976.74;431727;1317;112347;-38
2022/01/07 05:49:50;;;;;;;27.60;14.90;;;;;;;-5.66;82.14;98967.02;429235;1317;109067;-38
2022/01/07 05:59:58;;;;;;;47.50;19.90;;;;;;;-5.69;82.26;98964.55;431929;1317;108766;-38
2022/01/07 06:10:06;;;;;;;84.10;34.00;;;;;;;-5.81;82.19;98955.49;430943;1317;96209;-39
2022/01/07 06:20:14;;;;;;;78.30;35.00;;;;;;;-5.90;82.21;98947.95;430815;1317;96174;-38
2022/01/07 06:30:21;;;;;;;59.90;26.60;;;;;;;-6.01;82.10;98950.15;427911;1317;112441;-38
2022/01/07 06:40:28;;;;;;;77.00;31.50;;;;;;;-6.02;82.40;98969.34;426138;1317;5581300;-37
2022/01/07 06:50:36;;;;;;;88.60;36.10;;;;;;;-6.06;82.41;98956.40;432703;1317;96167;-38
2022/01/07 07:00:43;;;;;;;66.70;28.70;;;;;;;-6.00;82.42;98945.30;431782;1317;96112;-39
2022/01/07 07:10:51;;;;;;;65.40;25.90;;;;;;;-5.78;82.56;98951.45;431043;1317;112492;-38
2022/01/07 07:31:10;;;;;;;60.80;25.90;;;;;;;-4.88;82.38;98956.48;427868;1317;109252;-38
2022/01/07 07:41:19;;;;;;;60.90;24.80;;;;;;;-4.46;82.33;98960.43;431671;1317;96276;-38
2022/01/07 07:51:27;;;;;;;56.10;25.40;;;;;;;-4.36;82.01;98956.66;431355;1317;96282;-38
2022/01/07 08:01:36;;;;;;;53.50;22.50;;;;;;;-4.21;82.06;98943.25;428771;1317;112520;-38
2022/01/07 08:11:53;;;;;;;;;;;;;;;-3.46;82.44;98939.38;428805;1318;109388;-39
2022/01/07 08:22:03;;;;;;;52.60;22.60;;;;;;;-2.35;82.15;98932.67;429026;1317;108835;-38
2022/01/07 08:42:36;;;;;;;51.50;20.70;;;;;;;0.39;81.72;98919.33;429156;1317;96091;-38
2022/01/07 08:52:43;;;;;;;48.30;21.10;;;;;;;0.14;80.50;98924.33;431154;1317;112105;-38
2022/01/07 09:02:50;;;;;;;43.50;21.00;;;;;;;-0.80;79.83;98921.92;432795;1317;108946;-38
2022/01/07 09:12:57;;;;;;;45.40;19.70;;;;;;;-1.34;79.87;98911.98;433299;1317;109111;-38
2022/01/07 09:23:04;;;;;;;43.80;17.80;;;;;;;-1.02;80.22;98915.45;433131;1317;96056;-42
2022/01/07 09:33:11;;;;;;;42.70;17.40;;;;;;;-0.83;79.53;98909.48;433041;1317;96184;-38
2022/01/07 09:43:19;;;;;;;35.10;13.60;;;;;;;-0.61;79.28;98904.20;431603;1317;112247;-38
2022/01/07 09:53:27;;;;;;;34.10;12.80;;;;;;;-0.74;78.58;98904.59;429259;1317;108324;-38
2022/01/07 10:03:40;;;;;;;27.30;12.10;;;;;;;-0.70;78.70;98902.27;432706;1316;108869;-39
2022/01/07 10:13:49;;;;;;;30.00;14.80;;;;;;;-0.41;78.44;98898.88;431227;1317;95921;-39
2022/01/07 10:24:06;;;;;;;25.60;12.10;;;;;;;-0.41;78.07;98896.58;429174;1317;96202;-39
2022/01/07 10:54:26;;;;;;;30.50;11.90;;;;;;;-0.42;77.65;98875.73;430190;1321;108604;-38
2022/01/07 11:04:33;;;;;;;24.00;11.30;;;;;;;-0.20;77.28;98856.60;429902;1318;96163;-39
2022/01/07 11:14:41;;;;;;;20.70;9.80;;;;;;;0.12;77.35;98845.67;429803;1323;95835;-38
2022/01/07 11:35:19;;;;;;;16.80;7.90;;;;;;;0.49;76.66;98826.20;432387;1316;109151;-39
2022/01/07 11:45:38;;;;;;;14.40;6.60;;;;;;;0.65;76.20;98814.14;428740;1317;109422;-38
2022/01/07 11:55:46;;;;;;;17.80;8.30;;;;;;;0.70;75.86;98810.63;429817;1320;96184;-39
2022/01/07 12:05:53;;;;;;;27.30;11.00;;;;;;;0.71;75.26;98798.90;428836;1316;96213;-39
2022/01/07 12:16:02;;;;;;;17.70;8.90;;;;;;;0.72;75.20;98787.06;430087;1319;112553;-39
2022/01/07 12:26:11;;;;;;;19.10;8.70;;;;;;;0.71;74.57;98772.73;428091;1323;108751;-38
2022/01/07 12:36:28;;;;;;;24.90;9.40;;;;;;;0.71;74.58;98768.41;429280;1317;109217;-38
2022/01/07 12:46:35;;;;;;;20.70;7.00;;;;;;;0.70;74.05;98770.58;430422;1322;96336;-39
2022/01/07 12:56:42;;;;;;;22.40;8.10;;;;;;;0.60;73.56;98765.48;429404;1323;96192;-38
2022/01/07 13:06:51;;;;;;;18.20;8.10;;;;;;;0.54;73.39;98761.13;432078;1317;112605;-39
2022/01/07 13:17:00;;;;;;;21.80;10.30;;;;;;;0.39;73.14;98755.07;429922;1317;108762;-39
2022/01/07 13:27:09;;;;;;;24.30;8.90;;;;;;;0.21;73.38;98747.83;428624;1317;108827;-39
2022/01/07 13:37:18;;;;;;;26.70;12.10;;;;;;;0.10;73.35;98741.22;432135;1320;96122;-39
2022/01/07 13:47:23;;;;;;;;;;;;;;;0.06;73.24;98736.31;429465;1317;96111;-38
2022/01/07 13:57:33;;;;;;;29.20;12.50;;;;;;;-0.03;73.08;98733.39;428999;1317;96218;-38
2022/01/07 14:07:46;;;;;;;35.20;13.10;;;;;;;-0.13;72.84;98729.73;432236;1316;109084;-39
2022/01/07 14:18:04;;;;;;;38.20;16.20;;;;;;;-0.24;72.57;98715.77;430051;1318;96048;-39
2022/01/07 14:28:13;;;;;;;50.80;22.60;;;;;;;-0.34;72.28;98707.11;430065;1317;96235;-40
2022/01/07 14:38:20;;;;;;;48.60;19.30;;;;;;;-0.47;72.06;98703.30;427089;1317;5741940;-39
2022/01/07 14:48:28;;;;;;;35.90;14.50;;;;;;;-0.60;71.64;98702.15;430596;1316;108916;-39
2022/01/07 14:58:36;;;;;;;39.60;16.40;;;;;;;-0.69;71.29;98695.31;431123;1317;95883;-40
2022/01/07 15:08:43;;;;;;;51.60;20.90;;;;;;;-0.80;71.17;98693.17;432010;1316;96061;-39
2022/01/07 15:19:14;;;;;;;54.90;22.80;;;;;;;-0.92;71.06;98687.65;432552;1317;111804;-39
2022/01/07 15:29:21;;;;;;;58.90;20.90;;;;;;;-1.03;70.81;98685.25;432616;1317;108981;-39
2022/01/07 15:39:29;;;;;;;51.80;20.00;;;;;;;-1.08;70.47;98683.96;432964;1317;107389;-39
2022/01/07 15:49:37;;;;;;;67.60;24.50;;;;;;;-1.13;69.90;98683.36;429065;1317;96680;-40
2022/01/07 15:59:44;;;;;;;60.40;19.90;;;;;;;-1.15;69.26;98683.64;429961;1317;96200;-39
2022/01/07 16:09:51;;;;;;;48.60;17.70;;;;;;;-1.17;69.32;98680.70;429394;1317;112487;-39
2022/01/07 16:19:58;;;;;;;52.70;16.80;;;;;;;-1.18;68.95;98673.54;433104;1317;109283;-39
2022/01/07 16:30:13;;;;;;;50.30;21.20;;;;;;;-1.26;68.34;98672.54;430420;1317;108885;-39
2022/01/07 16:50:27;;;;;;;46.20;17.90;;;;;;;-1.43;68.51;98668.90;430798;1317;96388;-39
2022/01/07 17:00:34;;;;;;;45.60;17.90;;;;;;;-1.51;68.69;98665.02;431673;1316;113110;-39
2022/01/07 17:10:42;;;;;;;55.40;21.20;;;;;;;-1.61;68.53;98657.38;431254;1317;108968;-38
2022/01/07 17:20:49;;;;;;;83.50;33.60;;;;;;;-1.74;68.42;98643.48;431418;1316;109096;-39
2022/01/07 17:31:01;;;;;;;109.20;39.30;;;;;;;-1.91;68.50;98642.73;428387;1317;96207;-38
2022/01/07 17:41:08;;;;;;;101.80;37.60;;;;;;;-2.08;68.46;98635.40;428394;1319;96073;-38
2022/01/07 17:51:15;;;;;;;109.00;37.60;;;;;;;-2.24;68.56;98631.59;428347;1317;113750;-39
2022/01/07 18:01:23;;;;;;;96.00;36.50;;;;;;;-2.30;68.57;98626.48;433099;1317;108922;-38
2022/01/07 18:11:30;;;;;;;90.50;34.00;;;;;;;-2.29;68.52;98622.79;429865;1317;108859;-38
2022/01/07 18:21:37;;;;;;;99.60;35.80;;;;;;;-2.26;68.43;98621.29;431282;1314;96034;-39
2022/01/07 18:31:45;;;;;;;99.60;38.90;;;;;;;-2.29;68.27;98614.47;433103;1317;96128;-39
2022/01/07 18:41:51;;;;;;;112.10;45.00;;;;;;;-2.36;68.35;98609.45;428361;1321;111703;-39
2022/01/07 18:51:58;;;;;;;117.50;46.20;;;;;;;-2.40;68.33;98610.95;430175;1317;108909;-39
2022/01/07 19:02:06;;;;;;;131.90;50.00;;;;;;;-2.50;68.17;98606.17;430866;1318;108284;-39
2022/01/07 19:12:17;;;;;;;151.60;53.80;;;;;;;-2.60;67.99;98594.89;432347;1317;96148;-38
2022/01/07 19:22:25;;;;;;;197.00;60.80;;;;;;;-2.70;68.08;98592.09;433219;1317;96250;-39
2022/01/07 19:32:32;;;;;;;132.70;49.40;;;;;;;-2.79;68.43;98596.02;428129;1318;111671;-39
2022/01/07 19:42:39;;;;;;;144.00;49.10;;;;;;;-2.86;68.65;98588.39;432885;1318;109876;-38
2022/01/07 19:52:47;;;;;;;92.50;37.80;;;;;;;-2.84;68.52;98587.39;431142;1316;108709;-38
2022/01/07 20:02:54;;;;;;;93.60;38.30;;;;;;;-2.77;68.74;98580.94;428733;1317;96181;-39
2022/01/07 20:13:01;;;;;;;133.80;49.50;;;;;;;-2.76;69.01;98580.91;430905;1317;96182;-39
2022/01/07 20:23:09;;;;;;;147.00;53.80;;;;;;;-2.94;69.15;98586.57;429064;1318;112655;-38
2022/01/07 20:33:17;;;;;;;124.20;47.00;;;;;;;-3.13;69.23;98577.46;430788;1317;108897;-39
2022/01/07 20:43:24;;;;;;;155.90;57.50;;;;;;;-3.27;69.23;98578.33;430313;1317;108861;-38
2022/01/07 21:13:45;;;;;;;103.90;40.90;;;;;;;-3.83;68.86;98553.80;432853;1317;112367;-39
2022/01/07 21:23:52;;;;;;;91.40;37.20;;;;;;;-3.72;68.29;98540.41;431866;1317;108959;-39
2022/01/07 21:33:59;;;;;;;144.60;49.80;;;;;;;-3.68;68.18;98532.66;429843;1318;108044;-38
2022/01/07 21:44:07;;;;;;;120.00;42.60;;;;;;;-3.71;68.45;98534.00;428776;1321;96066;-38
2022/01/07 21:54:15;;;;;;;116.30;42.40;;;;;;;-3.77;68.35;98532.77;431353;1316;96210;-38
2022/01/07 22:04:22;;;;;;;108.70;39.70;;;;;;;-3.82;68.36;98534.23;430403;1317;111490;-38
2022/01/07 22:14:30;;;;;;;95.90;35.70;;;;;;;-3.84;68.38;98537.11;428671;1321;109029;-38
2022/01/07 22:24:37;;;;;;;90.20;35.90;;;;;;;-3.87;68.88;98541.68;428848;1317;108812;-38
2022/01/07 22:34:45;;;;;;;106.10;38.00;;;;;;;-3.90;68.76;98533.48;430266;1317;96372;-38
2022/01/07 22:44:55;;;;;;;69.20;31.20;;;;;;;-3.91;68.68;98519.42;425918;1324;3011708;-38
2022/01/07 22:55:03;;;;;;;67.30;29.40;;;;;;;-3.87;68.93;98521.13;428484;1320;112489;-39
2022/01/07 23:05:10;;;;;;;96.00;34.70;;;;;;;-3.92;68.90;98519.80;427900;1323;109450;-38
2022/01/07 23:15:25;;;;;;;95.20;36.40;;;;;;;-4.14;68.72;98509.73;428145;1318;107465;-38
2022/01/07 23:25:33;;;;;;;102.90;38.70;;;;;;;-4.33;69.14;98506.45;431730;1317;96135;-39
2022/01/07 23:45:49;;;;;;;78.60;31.30;;;;;;;-4.41;69.53;98489.08;431750;1317;113307;-38
2022/01/07 23:55:56;;;;;;;75.90;29.50;;;;;;;-4.44;69.42;98480.73;428641;1318;108956;-39
